createdAt,value
2017-01-26T00:00:00.551Z,0.44
2017-01-26T00:01:01.225Z,0.49
2017-01-26T00:02:01.890Z,0.5
2017-01-26T00:03:02.563Z,0.58
2017-01-26T00:04:03.236Z,0.46
2017-01-26T00:05:03.912Z,0.43
2017-01-26T00:06:04.610Z,0.43
2017-01-26T00:07:05.298Z,0.41
2017-01-26T00:08:05.986Z,0.46
2017-01-26T00:09:06.644Z,0.39
2017-01-26T00:10:07.321Z,0.4
2017-01-26T00:11:07.998Z,0.41
2017-01-26T00:12:08.665Z,0.37
2017-01-26T00:13:09.334Z,0.37
2017-01-26T00:14:10.047Z,0.5
2017-01-26T00:15:10.748Z,0.46
2017-01-26T00:16:11.419Z,0.49
2017-01-26T00:17:12.093Z,0.55
2017-01-26T00:18:12.768Z,0.59
2017-01-26T00:19:13.449Z,0.49
2017-01-26T00:20:14.124Z,0.59
2017-01-26T00:21:14.820Z,0.52
2017-01-26T00:22:15.501Z,0.5
2017-01-26T00:23:16.182Z,0.56
2017-01-26T00:24:16.860Z,0.52
2017-01-26T00:25:17.535Z,0.37
2017-01-26T00:26:18.223Z,0.49
2017-01-26T00:27:18.893Z,0.49
2017-01-26T00:28:19.583Z,0.43
2017-01-26T00:29:20.252Z,0.46
2017-01-26T00:30:20.935Z,0.55
2017-01-26T00:31:21.599Z,0.5
2017-01-26T00:32:22.268Z,0.58
2017-01-26T00:33:22.948Z,0.56
2017-01-26T00:34:23.634Z,0.52
2017-01-26T00:35:24.320Z,0.58
2017-01-26T00:36:24.994Z,0.65
2017-01-26T00:37:25.669Z,0.58
2017-01-26T00:38:26.351Z,0.6
2017-01-26T00:39:27.034Z,0.62
2017-01-26T00:40:27.711Z,0.62
2017-01-26T00:41:28.384Z,0.63
2017-01-26T00:42:29.057Z,0.63
2017-01-26T00:43:29.779Z,0.59
2017-01-26T00:44:30.442Z,0.63
2017-01-26T00:45:31.124Z,0.73
2017-01-26T00:46:31.800Z,0.68
2017-01-26T00:47:32.485Z,0.68
2017-01-26T00:48:33.173Z,0.81
2017-01-26T00:49:33.857Z,0.77
2017-01-26T00:50:34.540Z,0.65
2017-01-26T00:51:35.225Z,0.63
2017-01-26T00:52:35.888Z,0.7
2017-01-26T00:53:36.638Z,0.69
2017-01-26T00:54:37.375Z,0.68
2017-01-26T00:55:38.041Z,0.65
2017-01-26T00:56:38.722Z,0.69
2017-01-26T00:57:39.383Z,0.73
2017-01-26T00:58:40.051Z,0.69
2017-01-26T00:59:40.730Z,0.69
2017-01-26T01:00:41.418Z,0.69
2017-01-26T01:01:42.112Z,0.7
2017-01-26T01:02:42.813Z,0.69
2017-01-26T01:03:43.489Z,0.74
2017-01-26T01:04:44.162Z,0.76
2017-01-26T01:05:44.833Z,0.62
2017-01-26T01:06:45.504Z,0.83
2017-01-26T01:07:46.195Z,0.7
2017-01-26T01:08:46.875Z,0.7
2017-01-26T01:09:47.603Z,0.7
2017-01-26T01:10:48.282Z,0.77
2017-01-26T01:11:48.947Z,0.84
2017-01-26T01:12:49.627Z,0.81
2017-01-26T01:13:50.286Z,0.78
2017-01-26T01:14:50.963Z,0.83
2017-01-26T01:15:51.638Z,0.78
2017-01-26T01:16:52.308Z,0.7
2017-01-26T01:17:52.980Z,0.66
2017-01-26T01:18:53.648Z,0.65
2017-01-26T01:19:54.318Z,0.69
2017-01-26T01:20:54.987Z,0.73
2017-01-26T01:21:55.685Z,0.63
2017-01-26T01:22:56.352Z,0.83
2017-01-26T01:23:57.120Z,0.81
2017-01-26T01:24:57.803Z,0.73
2017-01-26T01:25:58.466Z,0.68
2017-01-26T01:26:59.131Z,0.73
2017-01-26T01:27:59.817Z,0.73
2017-01-26T01:29:00.472Z,0.66
2017-01-26T01:30:01.156Z,0.73
2017-01-26T01:31:01.822Z,0.65
2017-01-26T01:32:02.492Z,0.69
2017-01-26T01:33:03.166Z,0.66
2017-01-26T01:34:03.841Z,0.7
2017-01-26T01:35:04.524Z,0.62
2017-01-26T01:36:05.199Z,0.63
2017-01-26T01:37:05.876Z,0.59
2017-01-26T01:38:06.544Z,0.66
2017-01-26T01:39:07.236Z,0.76
2017-01-26T01:40:07.916Z,0.66
2017-01-26T01:41:08.577Z,0.77
2017-01-26T01:42:09.250Z,0.7
2017-01-26T01:43:09.942Z,0.7
2017-01-26T01:44:10.615Z,0.86
2017-01-26T01:45:11.285Z,0.8
2017-01-26T01:46:11.964Z,0.81
2017-01-26T01:47:12.634Z,0.7
2017-01-26T01:48:13.367Z,0.69
2017-01-26T01:49:14.041Z,0.69
2017-01-26T01:50:14.707Z,0.6
2017-01-26T01:51:15.398Z,0.63
2017-01-26T01:52:16.097Z,0.7
2017-01-26T01:53:16.770Z,0.69
2017-01-26T01:54:17.438Z,0.69
2017-01-26T01:55:18.114Z,0.65
2017-01-26T01:56:18.834Z,0.62
2017-01-26T01:57:19.527Z,0.7
2017-01-26T01:58:20.201Z,0.74
2017-01-26T01:59:20.870Z,0.69
2017-01-26T02:00:21.550Z,0.73
2017-01-26T02:01:22.228Z,0.7
2017-01-26T02:02:22.958Z,0.63
2017-01-26T02:03:23.637Z,0.59
2017-01-26T02:04:24.327Z,0.68
2017-01-26T02:05:25.006Z,0.68
2017-01-26T02:06:25.694Z,0.68
2017-01-26T02:07:26.384Z,0.68
2017-01-26T02:08:27.084Z,0.73
2017-01-26T02:09:27.753Z,0.65
2017-01-26T02:10:28.448Z,0.65
2017-01-26T02:11:29.145Z,0.76
2017-01-26T02:12:29.824Z,0.78
2017-01-26T02:13:30.519Z,0.7
2017-01-26T02:14:31.186Z,0.78
2017-01-26T02:15:31.864Z,0.77
2017-01-26T02:16:32.548Z,0.86
2017-01-26T02:17:33.223Z,0.87
2017-01-26T02:18:33.899Z,0.86
2017-01-26T02:19:34.581Z,0.7
2017-01-26T02:20:35.245Z,0.7
2017-01-26T02:21:35.921Z,0.78
2017-01-26T02:22:36.626Z,0.73
2017-01-26T02:23:37.293Z,0.8
2017-01-26T02:24:37.966Z,0.83
2017-01-26T02:25:38.648Z,0.86
2017-01-26T02:26:39.316Z,0.8
2017-01-26T02:27:39.990Z,0.7
2017-01-26T02:28:40.657Z,0.84
2017-01-26T02:29:41.334Z,0.81
2017-01-26T02:30:42.005Z,0.87
2017-01-26T02:31:42.672Z,0.88
2017-01-26T02:32:43.350Z,0.91
2017-01-26T02:33:44.021Z,0.83
2017-01-26T02:34:44.696Z,0.94
2017-01-26T02:35:45.375Z,0.81
2017-01-26T02:36:46.043Z,0.87
2017-01-26T02:37:46.714Z,0.84
2017-01-26T02:38:47.384Z,0.92
2017-01-26T02:39:48.062Z,0.88
2017-01-26T02:40:48.737Z,0.98
2017-01-26T02:41:49.426Z,0.95
2017-01-26T02:42:50.120Z,1.02
2017-01-26T02:43:50.800Z,1.01
2017-01-26T02:44:51.478Z,0.91
2017-01-26T02:45:52.152Z,0.86
2017-01-26T02:46:52.811Z,0.84
2017-01-26T02:47:53.518Z,0.98
2017-01-26T02:48:54.169Z,0.99
2017-01-26T02:49:54.834Z,1.01
2017-01-26T02:50:55.513Z,0.98
2017-01-26T02:51:56.191Z,0.99
2017-01-26T02:52:56.862Z,1.02
2017-01-26T02:53:57.533Z,0.96
2017-01-26T02:54:58.210Z,1.06
2017-01-26T02:55:58.874Z,1.05
2017-01-26T02:56:59.553Z,0.99
2017-01-26T02:58:00.220Z,1.02
2017-01-26T02:59:00.897Z,1.02
2017-01-26T03:00:01.571Z,0.98
2017-01-26T03:01:02.243Z,0.92
2017-01-26T03:02:02.911Z,0.81
2017-01-26T03:03:03.710Z,0.86
2017-01-26T03:04:04.452Z,0.88
2017-01-26T03:05:05.185Z,0.88
2017-01-26T03:06:05.910Z,0.86
2017-01-26T03:07:06.610Z,0.95
2017-01-26T03:08:07.320Z,0.96
2017-01-26T03:09:08.056Z,0.87
2017-01-26T03:10:08.831Z,0.91
2017-01-26T03:11:09.549Z,0.92
2017-01-26T03:12:10.257Z,1.01
2017-01-26T03:13:10.935Z,0.95
2017-01-26T03:14:11.636Z,1.04
2017-01-26T03:15:12.381Z,0.98
2017-01-26T03:16:13.029Z,0.98
2017-01-26T03:17:13.708Z,1.05
2017-01-26T03:18:14.775Z,0.99
2017-01-26T03:19:15.471Z,1.05
2017-01-26T03:20:16.212Z,0.99
2017-01-26T03:21:16.887Z,1.02
2017-01-26T03:22:17.573Z,0.99
2017-01-26T03:23:18.357Z,1.01
2017-01-26T03:24:19.054Z,1.04
2017-01-26T03:25:19.788Z,1.01
2017-01-26T03:26:20.549Z,1.01
2017-01-26T03:27:21.313Z,0.98
2017-01-26T03:28:22.037Z,1.04
2017-01-26T03:29:22.758Z,0.99
2017-01-26T03:30:23.533Z,1.06
2017-01-26T03:31:24.289Z,0.99
2017-01-26T03:32:24.970Z,0.99
2017-01-26T03:33:25.651Z,1.02
2017-01-26T03:34:26.334Z,0.99
2017-01-26T03:35:27.187Z,0.99
2017-01-26T03:36:27.944Z,0.98
2017-01-26T03:37:28.666Z,1.01
2017-01-26T03:38:29.344Z,0.99
2017-01-26T03:39:30.112Z,1.01
2017-01-26T03:40:30.908Z,1.02
2017-01-26T03:41:31.565Z,1.05
2017-01-26T03:42:32.240Z,1.04
2017-01-26T03:43:32.929Z,1.12
2017-01-26T03:44:33.630Z,1.01
2017-01-26T03:45:34.300Z,1.05
2017-01-26T03:46:35.032Z,1.04
2017-01-26T03:47:35.707Z,1.05
2017-01-26T03:48:36.639Z,1.08
2017-01-26T03:49:37.666Z,1.04
2017-01-26T03:50:38.100Z,1.05
2017-01-26T03:51:38.781Z,1.06
2017-01-26T03:52:39.466Z,1.05
2017-01-26T03:53:40.167Z,1.02
2017-01-26T03:54:40.842Z,1.04
2017-01-26T03:55:41.515Z,1.08
2017-01-26T03:56:42.224Z,1.12
2017-01-26T03:57:42.944Z,1.05
2017-01-26T03:58:43.590Z,1.02
2017-01-26T03:59:44.273Z,1.06
2017-01-26T04:00:44.946Z,1.08
2017-01-26T04:01:45.654Z,1.05
2017-01-26T04:02:46.331Z,1.12
2017-01-26T04:03:46.998Z,1.04
2017-01-26T04:04:47.682Z,1.1
2017-01-26T04:05:48.401Z,1.04
2017-01-26T04:06:49.077Z,1.06
2017-01-26T04:07:49.763Z,1.1
2017-01-26T04:08:50.428Z,1.05
2017-01-26T04:09:51.100Z,1.02
2017-01-26T04:10:51.769Z,1.1
2017-01-26T04:11:52.449Z,1.12
2017-01-26T04:12:53.167Z,1.16
2017-01-26T04:13:53.837Z,1.17
2017-01-26T04:14:54.513Z,1.19
2017-01-26T04:15:55.255Z,1.23
2017-01-26T04:16:55.931Z,1.22
2017-01-26T04:17:56.602Z,1.19
2017-01-26T04:18:57.274Z,1.22
2017-01-26T04:19:57.978Z,1.14
2017-01-26T04:20:58.651Z,1.22
2017-01-26T04:21:59.319Z,1.16
2017-01-26T04:23:00.020Z,1.17
2017-01-26T04:24:00.731Z,1.23
2017-01-26T04:25:01.442Z,1.2
2017-01-26T04:26:02.124Z,1.17
2017-01-26T04:27:02.798Z,1.2
2017-01-26T04:28:03.463Z,1.31
2017-01-26T04:29:04.147Z,1.3
2017-01-26T04:30:04.821Z,1.17
2017-01-26T04:31:05.490Z,1.1
2017-01-26T04:32:06.164Z,1.08
2017-01-26T04:33:06.966Z,1.08
2017-01-26T04:34:07.601Z,1.12
2017-01-26T04:35:08.276Z,1.06
2017-01-26T04:36:08.969Z,1.12
2017-01-26T04:37:09.658Z,1.08
2017-01-26T04:38:10.331Z,1.08
2017-01-26T04:39:11.019Z,1.1
2017-01-26T04:40:11.697Z,1.05
2017-01-26T04:41:12.371Z,1.05
2017-01-26T04:42:13.082Z,1.05
2017-01-26T04:43:13.772Z,1.05
2017-01-26T04:44:14.452Z,1.05
2017-01-26T04:45:15.161Z,1.04
2017-01-26T04:46:15.823Z,1.13
2017-01-26T04:47:16.545Z,1.05
2017-01-26T04:48:17.233Z,1.1
2017-01-26T04:49:17.908Z,1.04
2017-01-26T04:50:18.582Z,1.13
2017-01-26T04:51:19.235Z,1.1
2017-01-26T04:52:19.947Z,1.1
2017-01-26T04:53:20.633Z,1.05
2017-01-26T04:54:21.455Z,1.05
2017-01-26T04:55:22.030Z,1.06
2017-01-26T04:56:22.713Z,1.1
2017-01-26T04:57:23.378Z,1.08
2017-01-26T04:58:24.069Z,1.12
2017-01-26T04:59:24.745Z,1.06
2017-01-26T05:00:25.407Z,1.1
2017-01-26T05:01:26.161Z,1.02
2017-01-26T05:02:26.884Z,1.1
2017-01-26T05:03:27.727Z,1.17
2017-01-26T05:04:28.407Z,1.12
2017-01-26T05:05:29.080Z,1.05
2017-01-26T05:06:29.796Z,1.05
2017-01-26T05:07:30.469Z,1.1
2017-01-26T05:08:31.143Z,0.95
2017-01-26T05:09:31.810Z,1.01
2017-01-26T05:10:32.482Z,1.01
2017-01-26T05:11:33.164Z,1.05
2017-01-26T05:12:33.835Z,1.1
2017-01-26T05:13:34.508Z,0.96
2017-01-26T05:14:35.230Z,1.02
2017-01-26T05:15:35.906Z,1.02
2017-01-26T05:16:36.579Z,1.02
2017-01-26T05:17:37.259Z,1.05
2017-01-26T05:18:37.934Z,1.04
2017-01-26T05:19:38.600Z,1.06
2017-01-26T05:20:39.368Z,1.02
2017-01-26T05:21:40.090Z,1.06
2017-01-26T05:22:40.776Z,1.12
2017-01-26T05:23:41.448Z,1.08
2017-01-26T05:24:42.137Z,1.05
2017-01-26T05:25:42.826Z,1.08
2017-01-26T05:26:43.520Z,1.06
2017-01-26T05:27:44.188Z,1.08
2017-01-26T05:28:44.976Z,1.06
2017-01-26T05:29:45.614Z,1.02
2017-01-26T05:30:46.298Z,1.08
2017-01-26T05:31:46.958Z,0.96
2017-01-26T05:32:47.639Z,1.04
2017-01-26T05:33:48.298Z,1.05
2017-01-26T05:34:48.968Z,1.06
2017-01-26T05:35:49.646Z,1.08
2017-01-26T05:36:50.344Z,1.08
2017-01-26T05:37:51.011Z,1.01
2017-01-26T05:38:51.687Z,1.05
2017-01-26T05:39:52.440Z,1.04
2017-01-26T05:40:53.106Z,0.98
2017-01-26T05:41:53.856Z,1.05
2017-01-26T05:42:54.529Z,1.05
2017-01-26T05:43:55.199Z,1.05
2017-01-26T05:44:55.878Z,1.04
2017-01-26T05:45:56.677Z,1.1
2017-01-26T05:46:57.452Z,1.16
2017-01-26T05:47:58.021Z,1.06
2017-01-26T05:48:58.715Z,1.04
2017-01-26T05:49:59.382Z,1.05
2017-01-26T05:51:00.050Z,1.04
2017-01-26T05:52:00.759Z,1.1
2017-01-26T05:53:01.428Z,1.08
2017-01-26T05:54:02.514Z,1.06
2017-01-26T05:55:03.188Z,1.06
2017-01-26T05:56:03.858Z,1.08
2017-01-26T05:57:04.533Z,1.12
2017-01-26T05:58:05.240Z,1.13
2017-01-26T05:59:06.126Z,1.08
2017-01-26T06:00:06.808Z,1.1
2017-01-26T06:01:07.491Z,1.17
2017-01-26T06:02:08.222Z,1.05
2017-01-26T06:03:08.959Z,1.13
2017-01-26T06:04:09.683Z,1.14
2017-01-26T06:05:10.354Z,1.16
2017-01-26T06:06:11.033Z,1.12
2017-01-26T06:07:11.722Z,1.14
2017-01-26T06:08:12.394Z,1.14
2017-01-26T06:09:13.140Z,1.12
2017-01-26T06:10:13.823Z,1.05
2017-01-26T06:11:14.493Z,1.14
2017-01-26T06:12:15.386Z,1.16
2017-01-26T06:13:16.155Z,1.04
2017-01-26T06:14:16.757Z,1.08
2017-01-26T06:15:17.436Z,1.19
2017-01-26T06:16:18.136Z,1.14
2017-01-26T06:17:20.111Z,1.02
2017-01-26T06:18:20.794Z,1.12
2017-01-26T06:19:22.220Z,1.05
2017-01-26T06:20:23.303Z,1.05
2017-01-26T06:21:24.033Z,1.04
2017-01-26T06:22:24.748Z,1.12
2017-01-26T06:23:25.420Z,1.05
2017-01-26T06:24:26.428Z,1.05
2017-01-26T06:25:27.360Z,0.99
2017-01-26T06:26:27.997Z,1.1
2017-01-26T06:27:28.674Z,1.06
2017-01-26T06:28:29.364Z,1.17
2017-01-26T06:29:30.090Z,1.1
2017-01-26T06:30:30.766Z,1.06
2017-01-26T06:31:31.440Z,1.08
2017-01-26T06:32:32.114Z,1.14
2017-01-26T06:33:32.780Z,1.12
2017-01-26T06:34:33.461Z,1.04
2017-01-26T06:35:34.142Z,1.13
2017-01-26T06:36:34.815Z,1.2
2017-01-26T06:37:35.497Z,1.14
2017-01-26T06:38:36.198Z,1.2
2017-01-26T06:39:36.948Z,1.14
2017-01-26T06:40:37.650Z,1.1
2017-01-26T06:41:38.333Z,1.05
2017-01-26T06:42:39.027Z,1.1
2017-01-26T06:43:39.742Z,1.1
2017-01-26T06:44:40.515Z,1.16
2017-01-26T06:45:41.191Z,1.13
2017-01-26T06:46:41.885Z,1.13
2017-01-26T06:47:42.622Z,1.13
2017-01-26T06:48:43.306Z,1.12
2017-01-26T06:49:43.975Z,1.08
2017-01-26T06:50:44.638Z,1.13
2017-01-26T06:51:45.429Z,1.19
2017-01-26T06:52:46.116Z,1.2
2017-01-26T06:53:46.973Z,1.2
2017-01-26T06:54:47.634Z,1.2
2017-01-26T06:55:48.307Z,1.2
2017-01-26T06:56:48.978Z,1.2
2017-01-26T06:57:49.669Z,1.12
2017-01-26T06:58:50.401Z,1.16
2017-01-26T06:59:51.099Z,1.16
2017-01-26T07:00:51.775Z,1.16
2017-01-26T07:01:52.442Z,1.22
2017-01-26T07:02:53.124Z,1.16
2017-01-26T07:03:53.802Z,1.12
2017-01-26T07:04:54.480Z,1.14
2017-01-26T07:05:55.192Z,1.24
2017-01-26T07:06:55.872Z,1.13
2017-01-26T07:07:56.539Z,1.2
2017-01-26T07:08:57.221Z,1.14
2017-01-26T07:09:57.891Z,1.14
2017-01-26T07:10:58.574Z,1.12
2017-01-26T07:11:59.269Z,1.16
2017-01-26T07:13:00.024Z,1.14
2017-01-26T07:14:00.696Z,1.14
2017-01-26T07:15:01.391Z,1.16
2017-01-26T07:16:02.061Z,1.19
2017-01-26T07:17:02.740Z,1.19
2017-01-26T07:18:03.436Z,1.19
2017-01-26T07:19:04.117Z,1.14
2017-01-26T07:20:04.783Z,1.16
2017-01-26T07:21:05.458Z,1.16
2017-01-26T07:22:06.133Z,1.14
2017-01-26T07:23:06.804Z,1.17
2017-01-26T07:24:07.503Z,1.22
2017-01-26T07:25:08.170Z,1.2
2017-01-26T07:26:08.875Z,1.17
2017-01-26T07:27:09.587Z,1.2
2017-01-26T07:28:10.259Z,1.28
2017-01-26T07:29:10.928Z,1.26
2017-01-26T07:30:11.598Z,1.28
2017-01-26T07:31:12.285Z,1.48
2017-01-26T07:32:13.005Z,1.55
2017-01-26T07:33:13.690Z,1.62
2017-01-26T07:34:14.353Z,1.66
2017-01-26T07:35:15.062Z,1.52
2017-01-26T07:36:15.737Z,1.58
2017-01-26T07:37:16.411Z,1.52
2017-01-26T07:38:17.133Z,1.56
2017-01-26T07:39:17.802Z,1.52
2017-01-26T07:40:18.519Z,1.52
2017-01-26T07:41:19.264Z,1.49
2017-01-26T07:42:19.924Z,1.49
2017-01-26T07:43:20.617Z,1.5
2017-01-26T07:44:21.301Z,1.5
2017-01-26T07:45:21.987Z,1.55
2017-01-26T07:46:22.673Z,1.52
2017-01-26T07:47:23.349Z,1.55
2017-01-26T07:48:24.006Z,1.58
2017-01-26T07:49:24.676Z,1.58
2017-01-26T07:50:25.352Z,1.55
2017-01-26T07:51:26.033Z,1.49
2017-01-26T07:52:26.707Z,1.53
2017-01-26T07:53:27.375Z,1.56
2017-01-26T07:54:28.050Z,1.56
2017-01-26T07:55:28.729Z,1.53
2017-01-26T07:56:29.440Z,1.52
2017-01-26T07:57:30.123Z,1.67
2017-01-26T07:58:30.801Z,1.73
2017-01-26T07:59:31.461Z,1.67
2017-01-26T08:00:32.150Z,1.73
2017-01-26T08:01:32.820Z,1.7
2017-01-26T08:02:33.487Z,1.63
2017-01-26T08:03:34.159Z,1.62
2017-01-26T08:04:34.849Z,1.66
2017-01-26T08:05:35.531Z,1.6
2017-01-26T08:06:36.204Z,1.6
2017-01-26T08:07:36.879Z,1.62
2017-01-26T08:08:37.565Z,1.68
2017-01-26T08:09:38.236Z,1.66
2017-01-26T08:10:38.910Z,1.67
2017-01-26T08:11:39.580Z,1.66
2017-01-26T08:12:40.261Z,1.66
2017-01-26T08:13:40.928Z,1.63
2017-01-26T08:14:41.621Z,1.66
2017-01-26T08:15:42.353Z,1.59
2017-01-26T08:16:43.038Z,1.63
2017-01-26T08:17:43.733Z,1.63
2017-01-26T08:18:44.395Z,1.6
2017-01-26T08:19:45.063Z,1.6
2017-01-26T08:20:45.744Z,1.62
2017-01-26T08:21:46.452Z,1.62
2017-01-26T08:22:47.114Z,1.68
2017-01-26T08:23:47.828Z,1.62
2017-01-26T08:24:48.508Z,1.71
2017-01-26T08:25:49.173Z,1.74
2017-01-26T08:26:49.846Z,1.66
2017-01-26T08:27:50.568Z,1.66
2017-01-26T08:28:51.253Z,1.73
2017-01-26T08:29:51.950Z,1.73
2017-01-26T08:30:52.608Z,1.77
2017-01-26T08:31:53.287Z,1.7
2017-01-26T08:32:53.976Z,1.66
2017-01-26T08:33:54.657Z,1.67
2017-01-26T08:34:55.330Z,1.68
2017-01-26T08:35:55.995Z,1.73
2017-01-26T08:36:56.681Z,1.81
2017-01-26T08:37:57.349Z,1.81
2017-01-26T08:38:58.017Z,1.8
2017-01-26T08:39:58.699Z,1.78
2017-01-26T08:40:59.375Z,1.84
2017-01-26T08:42:00.059Z,1.8
2017-01-26T08:43:00.750Z,1.71
2017-01-26T08:44:01.435Z,1.67
2017-01-26T08:45:02.118Z,1.74
2017-01-26T08:46:02.793Z,1.8
2017-01-26T08:47:03.489Z,1.68
2017-01-26T08:48:04.172Z,1.74
2017-01-26T08:49:04.842Z,1.73
2017-01-26T08:50:05.521Z,1.67
2017-01-26T08:51:06.203Z,1.78
2017-01-26T08:52:06.945Z,1.74
2017-01-26T08:53:07.632Z,1.73
2017-01-26T08:54:08.316Z,1.81
2017-01-26T08:55:09.015Z,1.77
2017-01-26T08:56:09.680Z,1.78
2017-01-26T08:57:10.379Z,1.8
2017-01-26T08:58:11.085Z,1.81
2017-01-26T08:59:11.758Z,1.8
2017-01-26T09:00:12.436Z,1.84
2017-01-26T09:01:13.105Z,1.78
2017-01-26T09:02:13.779Z,1.67
2017-01-26T09:03:14.470Z,1.76
2017-01-26T09:04:15.147Z,1.68
2017-01-26T09:05:15.814Z,1.74
2017-01-26T09:06:16.489Z,1.71
2017-01-26T09:07:17.169Z,1.74
2017-01-26T09:08:17.829Z,1.73
2017-01-26T09:09:18.530Z,1.84
2017-01-26T09:10:19.203Z,1.84
2017-01-26T09:11:19.905Z,1.88
2017-01-26T09:12:20.604Z,1.84
2017-01-26T09:13:21.279Z,1.77
2017-01-26T09:14:21.967Z,1.77
2017-01-26T09:15:22.658Z,1.8
2017-01-26T09:16:23.339Z,1.85
2017-01-26T09:17:24.007Z,1.8
2017-01-26T09:18:24.681Z,1.8
2017-01-26T09:19:25.342Z,1.76
2017-01-26T09:20:26.096Z,1.68
2017-01-26T09:21:26.774Z,1.66
2017-01-26T09:22:27.478Z,1.73
2017-01-26T09:23:28.152Z,1.67
2017-01-26T09:24:28.854Z,1.7
2017-01-26T09:25:29.538Z,1.68
2017-01-26T09:26:30.215Z,1.8
2017-01-26T09:27:30.892Z,1.77
2017-01-26T09:28:31.571Z,1.85
2017-01-26T09:29:32.294Z,1.77
2017-01-26T09:30:33.534Z,1.87
2017-01-26T09:31:33.882Z,1.77
2017-01-26T09:32:34.643Z,1.89
2017-01-26T09:33:35.334Z,1.73
2017-01-26T09:34:36.047Z,1.85
2017-01-26T09:35:36.726Z,1.87
2017-01-26T09:36:37.571Z,1.85
2017-01-26T09:37:38.383Z,1.97
2017-01-26T09:38:42.759Z,1.85
2017-01-26T09:39:43.461Z,1.84
2017-01-26T09:40:49.229Z,1.89
2017-01-26T09:41:50.030Z,1.97
2017-01-26T09:42:50.821Z,1.92
2017-01-26T09:43:51.511Z,1.97
2017-01-26T09:44:52.208Z,1.92
2017-01-26T09:45:52.917Z,2.14
2017-01-26T09:46:53.572Z,2.1
2017-01-26T09:47:54.248Z,2.1
2017-01-26T09:48:55.160Z,2.1
2017-01-26T09:49:57.763Z,2.1
2017-01-26T09:50:58.540Z,2.11
2017-01-26T09:51:59.227Z,2.08
2017-01-26T09:52:59.909Z,2.11
2017-01-26T09:54:00.625Z,1.99
2017-01-26T09:55:01.321Z,2.02
2017-01-26T09:56:02.109Z,2
2017-01-26T09:57:02.839Z,2.02
2017-01-26T09:58:03.533Z,2.14
2017-01-26T09:59:04.185Z,2.07
2017-01-26T10:00:04.890Z,2.02
2017-01-26T10:01:05.579Z,2.1
2017-01-26T10:02:06.289Z,2.1
2017-01-26T10:03:06.978Z,2.11
2017-01-26T10:04:07.665Z,2.04
2017-01-26T10:05:08.370Z,2.11
2017-01-26T10:06:09.096Z,2.11
2017-01-26T10:07:09.713Z,2.08
2017-01-26T10:08:10.583Z,2.13
2017-01-26T10:09:11.285Z,2.13
2017-01-26T10:10:11.959Z,2.13
2017-01-26T10:11:12.648Z,2.11
2017-01-26T10:12:13.319Z,2.08
2017-01-26T10:13:14.000Z,2.11
2017-01-26T10:14:14.683Z,2.1
2017-01-26T10:15:15.355Z,2.14
2017-01-26T10:16:16.039Z,2.04
2017-01-26T10:17:16.760Z,2.02
2017-01-26T10:18:17.419Z,2.11
2017-01-26T10:19:18.120Z,2.1
2017-01-26T10:20:18.784Z,2.13
2017-01-26T10:21:19.531Z,2.18
2017-01-26T10:22:20.219Z,2.08
2017-01-26T10:23:20.895Z,2.15
2017-01-26T10:24:21.578Z,2.17
2017-01-26T10:25:22.368Z,2.2
2017-01-26T10:26:23.041Z,2.11
2017-01-26T10:27:23.739Z,2.1
2017-01-26T10:28:24.426Z,2.14
2017-01-26T10:29:25.161Z,2.17
2017-01-26T10:30:25.873Z,2.13
2017-01-26T10:31:26.542Z,2.18
2017-01-26T10:32:27.217Z,2.22
2017-01-26T10:33:27.910Z,2.29
2017-01-26T10:34:28.606Z,2.26
2017-01-26T10:35:29.283Z,2.2
2017-01-26T10:36:29.967Z,2.25
2017-01-26T10:37:30.641Z,2.22
2017-01-26T10:38:31.311Z,2.24
2017-01-26T10:39:32.001Z,2.26
2017-01-26T10:40:32.713Z,2.32
2017-01-26T10:41:33.363Z,2.33
2017-01-26T10:42:34.256Z,2.35
2017-01-26T10:43:34.932Z,2.47
2017-01-26T10:44:35.606Z,2.44
2017-01-26T10:45:36.356Z,2.5
2017-01-26T10:46:37.102Z,2.47
2017-01-26T10:47:37.852Z,2.53
2017-01-26T10:48:38.524Z,2.54
2017-01-26T10:49:39.201Z,2.39
2017-01-26T10:50:39.897Z,2.49
2017-01-26T10:51:40.589Z,2.5
2017-01-26T10:52:41.304Z,2.44
2017-01-26T10:53:42.042Z,2.46
2017-01-26T10:54:42.700Z,2.57
2017-01-26T10:55:43.406Z,2.62
2017-01-26T10:56:44.168Z,2.61
2017-01-26T10:57:44.856Z,2.62
2017-01-26T10:58:45.535Z,2.61
2017-01-26T10:59:46.202Z,2.72
2017-01-26T11:00:46.906Z,2.75
2017-01-26T11:01:47.587Z,2.82
2017-01-26T11:02:48.270Z,2.85
2017-01-26T11:03:48.989Z,2.72
2017-01-26T11:04:49.663Z,2.74
2017-01-26T11:05:50.398Z,2.79
2017-01-26T11:06:51.039Z,2.74
2017-01-26T11:07:51.725Z,2.79
2017-01-26T11:08:52.405Z,2.79
2017-01-26T11:09:53.103Z,2.89
2017-01-26T11:10:53.794Z,2.86
2017-01-26T11:11:54.517Z,2.9
2017-01-26T11:12:55.191Z,2.9
2017-01-26T11:13:55.967Z,2.93
2017-01-26T11:14:56.638Z,2.9
2017-01-26T11:15:57.322Z,3.11
2017-01-26T11:16:58.017Z,3.08
2017-01-26T11:17:58.706Z,3.13
2017-01-26T11:18:59.411Z,3.1
2017-01-26T11:20:00.108Z,3.16
2017-01-26T11:21:00.779Z,3.03
2017-01-26T11:22:01.502Z,3.03
2017-01-26T11:23:02.221Z,3.13
2017-01-26T11:24:02.956Z,3.13
2017-01-26T11:25:03.635Z,3.1
2017-01-26T11:26:04.358Z,3.07
2017-01-26T11:27:05.189Z,3.13
2017-01-26T11:28:05.971Z,2.86
2017-01-26T11:29:06.707Z,3.05
2017-01-26T11:30:07.414Z,3.08
2017-01-26T11:31:08.111Z,3.07
2017-01-26T11:32:08.824Z,2.95
2017-01-26T11:33:09.507Z,2.95
2017-01-26T11:34:10.194Z,3.03
2017-01-26T11:35:10.885Z,3.03
2017-01-26T11:36:11.855Z,3.01
2017-01-26T11:37:12.424Z,3.05
2017-01-26T11:38:13.145Z,3.05
2017-01-26T11:39:13.843Z,3.07
2017-01-26T11:40:14.552Z,3.01
2017-01-26T11:41:15.245Z,2.92
2017-01-26T11:42:15.939Z,3.07
2017-01-26T11:43:16.729Z,3.07
2017-01-26T11:44:17.416Z,3.03
2017-01-26T11:45:18.607Z,3.04
2017-01-26T11:46:19.275Z,3.05
2017-01-26T11:47:19.979Z,3.04
2017-01-26T11:48:20.661Z,3.1
2017-01-26T11:49:21.354Z,3.13
2017-01-26T11:50:22.005Z,3.1
2017-01-26T11:51:22.719Z,3.07
2017-01-26T11:52:23.429Z,3.05
2017-01-26T11:53:24.868Z,3.16
2017-01-26T11:54:25.604Z,3.11
2017-01-26T11:55:26.311Z,3.13
2017-01-26T11:56:27.115Z,3.19
2017-01-26T11:57:27.787Z,3.11
2017-01-26T11:58:28.619Z,3.21
2017-01-26T11:59:29.279Z,3.11
2017-01-26T12:00:29.966Z,3.16
2017-01-26T12:01:30.632Z,3.25
2017-01-26T12:02:31.393Z,3.34
2017-01-26T12:03:32.325Z,3.36
2017-01-26T12:04:33.099Z,3.4
2017-01-26T12:05:33.801Z,3.47
2017-01-26T12:06:35.256Z,3.4
2017-01-26T12:07:35.954Z,3.26
2017-01-26T12:08:36.630Z,3.31
2017-01-26T12:09:37.319Z,3.16
2017-01-26T12:10:38.000Z,3.14
2017-01-26T12:11:38.725Z,3.14
2017-01-26T12:12:39.412Z,3.04
2017-01-26T12:13:40.092Z,3.1
2017-01-26T12:14:40.804Z,3.13
2017-01-26T12:15:41.535Z,3.07
2017-01-26T12:16:42.265Z,3.05
2017-01-26T12:17:42.943Z,3.16
2017-01-26T12:18:43.655Z,3.14
2017-01-26T12:19:44.336Z,3.18
2017-01-26T12:20:45.008Z,3.23
2017-01-26T12:21:45.693Z,3.29
2017-01-26T12:22:46.405Z,3.31
2017-01-26T12:23:47.083Z,3.37
2017-01-26T12:24:47.878Z,3.32
2017-01-26T12:25:48.469Z,3.4
2017-01-26T12:26:49.139Z,3.42
2017-01-26T12:27:49.817Z,3.51
2017-01-26T12:28:50.535Z,3.55
2017-01-26T12:29:51.228Z,3.53
2017-01-26T12:30:51.914Z,3.51
2017-01-26T12:31:52.615Z,3.56
2017-01-26T12:32:53.293Z,3.55
2017-01-26T12:33:54.009Z,3.55
2017-01-26T12:34:54.703Z,3.5
2017-01-26T12:35:55.391Z,3.48
2017-01-26T12:36:56.082Z,3.47
2017-01-26T12:37:56.761Z,3.42
2017-01-26T12:38:57.475Z,3.34
2017-01-26T12:39:58.166Z,3.37
2017-01-26T12:40:58.893Z,3.36
2017-01-26T12:41:59.579Z,3.29
2017-01-26T12:43:00.356Z,3.28
2017-01-26T12:44:01.040Z,3.28
2017-01-26T12:45:01.718Z,3.37
2017-01-26T12:46:02.386Z,3.36
2017-01-26T12:47:03.079Z,3.31
2017-01-26T12:48:04.024Z,3.34
2017-01-26T12:49:04.952Z,3.36
2017-01-26T12:50:05.681Z,3.36
2017-01-26T12:51:06.374Z,3.31
2017-01-26T12:52:07.079Z,3.25
2017-01-26T12:53:07.786Z,3.29
2017-01-26T12:54:08.645Z,3.32
2017-01-26T12:55:09.353Z,3.32
2017-01-26T12:56:10.095Z,3.4
2017-01-26T12:57:10.798Z,3.41
2017-01-26T12:58:11.511Z,3.41
2017-01-26T12:59:12.259Z,3.36
2017-01-26T13:00:13.008Z,3.29
2017-01-26T13:01:13.783Z,3.26
2017-01-26T13:02:14.594Z,3.29
2017-01-26T13:03:15.475Z,3.25
2017-01-26T13:04:16.160Z,3.31
2017-01-26T13:05:16.867Z,3.37
2017-01-26T13:06:17.585Z,3.26
2017-01-26T13:07:18.280Z,3.34
2017-01-26T13:08:18.969Z,3.25
2017-01-26T13:09:19.694Z,3.26
2017-01-26T13:10:20.436Z,3.34
2017-01-26T13:11:21.214Z,3.37
2017-01-26T13:12:22.090Z,3.36
2017-01-26T13:13:22.802Z,3.4
2017-01-26T13:14:23.543Z,3.41
2017-01-26T13:15:24.319Z,3.4
2017-01-26T13:16:25.157Z,3.47
2017-01-26T13:17:25.863Z,3.4
2017-01-26T13:18:26.543Z,3.47
2017-01-26T13:19:27.254Z,3.42
2017-01-26T13:20:27.935Z,3.42
2017-01-26T13:21:28.618Z,3.5
2017-01-26T13:22:29.312Z,3.4
2017-01-26T13:23:29.998Z,3.41
2017-01-26T13:24:30.716Z,3.4
2017-01-26T13:25:31.413Z,3.42
2017-01-26T13:26:32.102Z,3.45
2017-01-26T13:27:52.673Z,3.48
2017-01-26T13:28:53.355Z,3.44
2017-01-26T13:29:54.037Z,3.42
2017-01-26T13:30:54.726Z,3.41
2017-01-26T13:31:55.403Z,3.47